createdAt,value
2018-09-15T00:01:54.191Z,1.47
2018-09-15T00:04:22.661Z,1.23
2018-09-15T00:06:51.170Z,0.90
2018-09-15T00:09:19.925Z,1.50
2018-09-15T00:11:48.442Z,1.33
2018-09-15T00:14:17.609Z,0.90
2018-09-15T00:16:47.074Z,1.00
2018-09-15T00:19:15.518Z,1.00
2018-09-15T00:21:44.275Z,1.40
2018-09-15T00:24:12.790Z,0.93
2018-09-15T00:26:41.333Z,1.03
2018-09-15T00:29:09.813Z,1.23
2018-09-15T00:31:38.333Z,1.00
2018-09-15T00:34:07.144Z,1.23
2018-09-15T00:36:35.805Z,1.20
2018-09-15T00:39:06.922Z,0.70
2018-09-15T00:41:35.607Z,1.20
2018-09-15T00:44:04.042Z,1.27
2018-09-15T00:46:32.665Z,1.20
2018-09-15T00:49:01.388Z,1.10
2018-09-15T00:51:29.856Z,1.10
2018-09-15T00:53:58.385Z,0.93
2018-09-15T00:56:26.837Z,1.17
2018-09-15T00:58:55.305Z,1.03
2018-09-15T01:01:24.083Z,1.10
2018-09-15T01:03:52.536Z,1.30
2018-09-15T01:06:21.049Z,1.10
2018-09-15T01:08:49.813Z,1.33
2018-09-15T01:11:18.265Z,1.10
2018-09-15T01:13:46.799Z,1.37
2018-09-15T01:16:15.429Z,1.10
2018-09-15T01:18:44.950Z,1.07
2018-09-15T01:21:13.427Z,1.00
2018-09-15T01:23:42.336Z,1.43
2018-09-15T01:26:10.910Z,1.10
2018-09-15T01:28:49.169Z,1.07
2018-09-15T01:31:17.830Z,1.00
2018-09-15T01:33:46.274Z,1.13
2018-09-15T01:36:15.287Z,1.17
2018-09-15T01:38:43.762Z,1.30
2018-09-15T01:41:12.238Z,1.10
2018-09-15T01:43:40.885Z,0.83
2018-09-15T01:46:09.371Z,1.20
2018-09-15T01:48:37.838Z,0.90
2018-09-15T01:51:06.749Z,1.00
2018-09-15T01:53:35.221Z,1.20
2018-09-15T01:56:03.740Z,1.50
2018-09-15T01:58:32.249Z,1.00
2018-09-15T02:01:00.685Z,1.30
2018-09-15T02:03:29.578Z,1.10
2018-09-15T02:05:58.354Z,1.63
2018-09-15T02:08:26.891Z,1.00
2018-09-15T02:10:55.340Z,1.10
2018-09-15T02:13:24.213Z,0.97
2018-09-15T02:15:52.885Z,1.30
2018-09-15T02:18:21.338Z,1.10
2018-09-15T02:20:50.089Z,1.10
2018-09-15T02:23:18.562Z,1.20
2018-09-15T02:25:47.146Z,1.00
2018-09-15T02:28:16.137Z,1.03
2018-09-15T02:30:44.566Z,1.10
2018-09-15T02:33:13.096Z,0.90
2018-09-15T02:35:41.785Z,1.27
2018-09-15T02:38:10.214Z,1.20
2018-09-15T02:40:38.665Z,1.10
2018-09-15T02:43:07.679Z,1.17
2018-09-15T02:45:36.153Z,1.37
2018-09-15T02:48:04.599Z,1.20
2018-09-15T02:50:33.592Z,1.27
2018-09-15T02:53:02.070Z,0.97
2018-09-15T02:55:30.507Z,1.20
2018-09-15T02:57:59.017Z,1.30
2018-09-15T03:00:27.477Z,1.60
2018-09-15T03:02:55.911Z,1.10
2018-09-15T03:05:25.195Z,1.20
2018-09-15T03:07:53.761Z,1.00
2018-09-15T03:10:22.209Z,1.40
2018-09-15T03:12:50.883Z,1.40
2018-09-15T03:15:19.652Z,1.30
2018-09-15T03:17:49.155Z,1.13
2018-09-15T03:20:18.003Z,1.03
2018-09-15T03:22:46.601Z,1.40
2018-09-15T03:25:15.055Z,1.17
2018-09-15T03:27:43.878Z,1.43
2018-09-15T03:30:12.438Z,1.20
2018-09-15T03:32:40.888Z,1.47
2018-09-15T03:35:09.446Z,1.57
2018-09-15T03:37:38.164Z,1.30
2018-09-15T03:40:06.953Z,1.40
2018-09-15T03:42:36.981Z,1.50
2018-09-15T03:45:05.645Z,1.33
2018-09-15T03:47:34.083Z,1.40
2018-09-15T03:50:02.975Z,1.10
2018-09-15T03:52:31.477Z,1.20
2018-09-15T03:55:00.129Z,1.40
2018-09-15T03:57:28.817Z,1.23
2018-09-15T03:59:57.334Z,1.57
2018-09-15T04:02:25.738Z,1.00
2018-09-15T04:04:54.869Z,1.40
2018-09-15T04:07:23.660Z,1.37
2018-09-15T04:09:52.083Z,1.30
2018-09-15T04:12:20.825Z,1.40
2018-09-15T04:14:49.277Z,1.57
2018-09-15T04:17:17.825Z,1.33
2018-09-15T04:19:47.154Z,1.70
2018-09-15T04:22:15.635Z,1.60
2018-09-15T04:24:44.085Z,1.60
2018-09-15T04:27:12.607Z,1.73
2018-09-15T04:29:41.075Z,1.87
2018-09-15T04:32:09.849Z,1.60
2018-09-15T04:34:38.359Z,1.70
2018-09-15T04:37:07.001Z,1.23
2018-09-15T04:39:35.641Z,1.63
2018-09-15T04:42:04.425Z,1.70
2018-09-15T04:44:32.881Z,1.33
2018-09-15T04:47:01.365Z,1.50
2018-09-15T04:49:30.277Z,1.50
2018-09-15T04:51:58.748Z,1.90
2018-09-15T04:54:27.204Z,1.50
2018-09-15T04:56:56.529Z,2.00
2018-09-15T04:59:25.038Z,1.80
2018-09-15T05:01:53.472Z,1.53
2018-09-15T05:04:22.085Z,2.10
2018-09-15T05:06:50.949Z,1.80
2018-09-15T05:09:19.561Z,2.03
2018-09-15T05:11:48.362Z,2.20
2018-09-15T05:14:16.838Z,1.70
2018-09-15T05:16:45.269Z,2.10
2018-09-15T05:19:14.108Z,2.20
2018-09-15T05:21:43.064Z,1.90
2018-09-15T05:24:11.545Z,2.30
2018-09-15T05:26:40.187Z,2.40
2018-09-15T05:29:08.636Z,2.13
2018-09-15T05:31:37.169Z,1.93
2018-09-15T05:34:05.734Z,2.50
2018-09-15T05:36:34.272Z,2.40
2018-09-15T05:39:02.890Z,2.07
2018-09-15T05:41:31.478Z,2.00
2018-09-15T05:43:59.929Z,1.90
2018-09-15T05:46:28.350Z,2.10
2018-09-15T05:48:57.216Z,2.20
2018-09-15T05:51:25.950Z,2.47
2018-09-15T05:53:54.370Z,2.07
2018-09-15T05:56:23.253Z,2.47
2018-09-15T05:58:51.777Z,1.80
2018-09-15T06:01:20.257Z,2.30
2018-09-15T06:03:49.685Z,1.90
2018-09-15T06:06:18.517Z,2.10
2018-09-15T06:08:47.027Z,2.27
2018-09-15T06:11:15.843Z,2.20
2018-09-15T06:13:44.379Z,2.40
2018-09-15T06:16:12.789Z,2.30
2018-09-15T06:18:42.045Z,2.27
2018-09-15T06:21:10.503Z,2.30
2018-09-15T06:23:39.639Z,2.23
2018-09-15T06:26:08.471Z,1.90
2018-09-15T06:28:36.994Z,1.97
2018-09-15T06:31:05.474Z,3.03
2018-09-15T06:33:34.017Z,2.30
2018-09-15T06:36:02.488Z,2.13
2018-09-15T06:38:30.919Z,2.43
2018-09-15T06:40:59.589Z,2.07
2018-09-15T06:43:28.079Z,2.13
2018-09-15T06:45:56.578Z,1.73
2018-09-15T06:48:25.090Z,2.00
2018-09-15T06:50:53.556Z,2.07
2018-09-15T06:53:22.423Z,1.97
2018-09-15T06:55:51.091Z,1.70
2018-09-15T06:58:19.736Z,2.33
2018-09-15T07:00:49.418Z,1.80
2018-09-15T07:03:18.071Z,2.17
2018-09-15T07:05:46.607Z,2.23
2018-09-15T07:08:15.086Z,1.90
2018-09-15T07:10:43.719Z,1.50
2018-09-15T07:13:12.532Z,1.80
2018-09-15T07:15:41.596Z,1.50
2018-09-15T07:18:10.126Z,1.67
2018-09-15T07:20:38.610Z,1.50
2018-09-15T07:23:07.082Z,1.83
2018-09-15T07:25:35.913Z,1.87
2018-09-15T07:28:04.594Z,1.50
2018-09-15T07:30:33.018Z,1.60
2018-09-15T07:33:01.987Z,1.43
2018-09-15T07:35:30.469Z,1.53
2018-09-15T07:37:58.906Z,1.70
2018-09-15T07:40:27.417Z,1.87
2018-09-15T07:42:55.890Z,1.60
2018-09-15T07:45:24.336Z,1.33
2018-09-15T07:47:53.079Z,1.40
2018-09-15T07:50:21.669Z,1.47
2018-09-15T07:52:50.397Z,1.40
2018-09-15T07:55:19.169Z,1.20
2018-09-15T07:57:48.393Z,1.37
2018-09-15T08:00:16.798Z,1.20
2018-09-15T08:02:45.597Z,1.30
2018-09-15T08:05:14.100Z,1.27
2018-09-15T08:07:42.517Z,1.30
2018-09-15T08:10:11.030Z,1.20
2018-09-15T08:12:39.502Z,0.93
2018-09-15T08:15:08.105Z,1.80
2018-09-15T08:17:36.721Z,1.00
2018-09-15T08:20:05.259Z,0.97
2018-09-15T08:22:33.847Z,0.90
2018-09-15T08:25:02.537Z,1.00
2018-09-15T08:27:31.419Z,1.40
2018-09-15T08:29:59.890Z,1.30
2018-09-15T08:32:28.876Z,0.90
2018-09-15T08:34:57.607Z,1.73
2018-09-15T08:37:26.077Z,1.10
2018-09-15T08:39:54.581Z,1.00
2018-09-15T08:42:23.114Z,1.00
2018-09-15T08:44:51.700Z,1.10
2018-09-15T08:47:20.681Z,0.90
2018-09-15T08:49:49.698Z,0.90
2018-09-15T08:52:19.090Z,0.80
2018-09-15T08:54:47.881Z,1.10
2018-09-15T08:57:19.143Z,1.43
2018-09-15T08:59:47.669Z,1.30
2018-09-15T09:02:16.501Z,1.00
2018-09-15T09:04:45.781Z,1.10
2018-09-15T09:07:14.235Z,1.10
2018-09-15T09:09:42.849Z,1.20
2018-09-15T09:12:11.360Z,0.90
2018-09-15T09:14:39.784Z,1.20
2018-09-15T09:17:08.519Z,1.00
2018-09-15T09:19:36.986Z,0.73
2018-09-15T09:22:05.560Z,0.60
2018-09-15T09:24:37.783Z,1.10
2018-09-15T09:29:50.492Z,1.00
2018-09-15T09:32:21.106Z,1.33
2018-09-15T09:34:51.249Z,0.90
2018-09-15T09:37:21.211Z,0.90
2018-09-15T09:39:51.437Z,1.10
2018-09-15T09:42:21.789Z,0.73
2018-09-15T09:44:50.887Z,1.17
2018-09-15T09:47:20.985Z,1.10
2018-09-15T09:49:50.702Z,1.17
2018-09-15T09:52:21.223Z,1.20
2018-09-15T09:54:53.958Z,1.10
2018-09-15T09:57:24.105Z,1.07
2018-09-15T09:59:53.302Z,0.70
2018-09-15T10:02:23.192Z,1.22
2018-09-15T10:04:53.596Z,0.93
2018-09-15T10:07:22.267Z,1.30
2018-09-15T10:09:50.709Z,1.20
2018-09-15T10:12:19.874Z,1.12
2018-09-15T10:14:49.217Z,1.00
2018-09-15T10:17:17.803Z,1.27
2018-09-15T10:19:46.310Z,1.20
2018-09-15T10:22:15.178Z,0.88
2018-09-15T10:24:43.628Z,0.88
2018-09-15T10:27:12.165Z,1.32
2018-09-15T10:29:40.689Z,0.90
2018-09-15T10:32:09.636Z,1.00
2018-09-15T10:34:38.075Z,1.15
2018-09-15T10:37:06.803Z,1.00
2018-09-15T10:39:35.249Z,0.90
2018-09-15T10:42:03.736Z,0.70
2018-09-15T10:44:32.270Z,0.80
2018-09-15T10:47:00.705Z,0.93
2018-09-15T10:49:29.173Z,0.90
2018-09-15T10:51:57.959Z,0.60
2018-09-15T10:54:26.405Z,1.02
2018-09-15T10:56:54.953Z,0.90
2018-09-15T10:59:23.744Z,1.07
2018-09-15T11:01:52.209Z,0.50
2018-09-15T11:04:20.768Z,0.78
2018-09-15T11:06:49.404Z,0.80
2018-09-15T11:09:18.082Z,0.60
2018-09-15T11:11:46.564Z,1.00
2018-09-15T11:14:15.072Z,1.10
2018-09-15T11:16:43.507Z,0.70
2018-09-15T11:19:12.173Z,1.20
2018-09-15T11:21:40.866Z,1.00
2018-09-15T11:24:09.289Z,0.93
2018-09-15T11:26:37.890Z,0.78
2018-09-15T11:29:06.559Z,1.00
2018-09-15T11:31:34.993Z,0.65
2018-09-15T11:34:04.059Z,0.80
2018-09-15T11:36:32.509Z,1.20
2018-09-15T11:39:00.973Z,0.85
2018-09-15T11:41:29.421Z,0.70
2018-09-15T11:43:57.954Z,0.82
2018-09-15T11:46:26.387Z,0.88
2018-09-15T11:48:54.894Z,0.80
2018-09-15T11:51:23.567Z,0.70
2018-09-15T11:53:52.063Z,0.82
2018-09-15T11:56:20.574Z,0.70
2018-09-15T11:58:50.039Z,0.98
2018-09-15T12:01:18.985Z,0.40
2018-09-15T12:03:48.145Z,0.70
2018-09-15T12:06:16.644Z,0.57
2018-09-15T12:08:45.088Z,0.80
2018-09-15T12:11:13.566Z,0.68
2018-09-15T12:13:42.105Z,1.02
2018-09-15T12:16:11.042Z,0.93
2018-09-15T12:18:39.537Z,0.90
2018-09-15T12:21:08.362Z,0.93
2018-09-15T12:23:36.788Z,0.80
2018-09-15T12:26:05.248Z,0.85
2018-09-15T12:28:36.730Z,0.93
2018-09-15T12:31:05.990Z,0.80
2018-09-15T12:33:34.588Z,0.70
2018-09-15T12:36:03.097Z,0.80
2018-09-15T12:38:31.565Z,0.88
2018-09-15T12:41:00.137Z,0.75
2018-09-15T12:43:28.578Z,0.88
2018-09-15T12:45:57.059Z,0.98
2018-09-15T12:48:25.822Z,0.88
2018-09-15T12:50:54.257Z,0.98
2018-09-15T12:53:23.362Z,1.05
2018-09-15T12:55:52.141Z,0.78
2018-09-15T12:58:20.579Z,0.90
2018-09-15T13:00:49.043Z,0.72
2018-09-15T13:03:17.993Z,0.93
2018-09-15T13:05:46.596Z,0.70
2018-09-15T13:08:15.114Z,1.02
2018-09-15T13:10:43.729Z,0.80
2018-09-15T13:13:12.185Z,0.60
2018-09-15T13:15:40.693Z,0.62
2018-09-15T13:18:09.381Z,0.60
2018-09-15T13:20:37.869Z,0.45
2018-09-15T13:23:06.546Z,0.70
2018-09-15T13:25:35.065Z,0.62
2018-09-15T13:28:03.530Z,0.68
2018-09-15T13:30:32.008Z,0.55
2018-09-15T13:33:00.890Z,0.60
2018-09-15T13:35:29.346Z,0.70
2018-09-15T13:37:59.269Z,0.45
2018-09-15T13:40:27.849Z,0.70
2018-09-15T13:42:56.270Z,0.60
2018-09-15T13:45:24.840Z,0.50
2018-09-15T13:47:53.375Z,1.00
2018-09-15T13:50:21.817Z,0.60
2018-09-15T13:52:50.413Z,0.70
2018-09-15T13:55:19.012Z,0.60
2018-09-15T13:57:47.486Z,0.70
2018-09-15T14:00:15.973Z,0.40
2018-09-15T14:02:44.883Z,0.62
2018-09-15T14:05:14.496Z,0.82
2018-09-15T14:07:43.422Z,0.75
2018-09-15T14:10:18.928Z,0.80
2018-09-15T14:12:41.346Z,0.80
2018-09-15T14:15:09.825Z,0.82
2018-09-15T14:17:38.463Z,0.98
2018-09-15T14:20:06.981Z,0.80
2018-09-15T14:22:35.465Z,0.90
2018-09-15T14:25:04.524Z,0.70
2018-09-15T14:27:33.082Z,0.70
2018-09-15T14:30:01.574Z,0.80
2018-09-15T14:32:30.523Z,0.80
2018-09-15T14:34:59.054Z,0.80
2018-09-15T14:37:27.957Z,0.50
2018-09-15T14:39:56.861Z,0.62
2018-09-15T14:42:25.338Z,0.75
2018-09-15T14:44:53.800Z,0.90
2018-09-15T14:47:22.318Z,0.80
2018-09-15T14:49:50.845Z,0.70
2018-09-15T14:52:19.343Z,0.60
2018-09-15T14:54:47.920Z,0.57
2018-09-15T14:57:16.356Z,0.60
2018-09-15T14:59:44.952Z,0.62
2018-09-15T15:02:13.659Z,0.70
2018-09-15T15:04:42.096Z,0.85
2018-09-15T15:07:10.582Z,0.53
2018-09-15T15:09:39.093Z,0.60
2018-09-15T15:12:07.541Z,0.72
2018-09-15T15:14:36.018Z,0.70
2018-09-15T15:17:04.611Z,0.40
2018-09-15T15:19:33.040Z,0.42
2018-09-15T15:22:01.499Z,0.50
2018-09-15T15:24:30.147Z,0.78
2018-09-15T15:26:58.829Z,0.40
2018-09-15T15:29:27.489Z,0.60
2018-09-15T15:31:56.118Z,0.47
2018-09-15T15:34:24.887Z,0.30
2018-09-15T15:36:53.366Z,0.75
2018-09-15T15:39:22.099Z,0.40
2018-09-15T15:41:50.582Z,0.60
2018-09-15T15:44:19.061Z,0.53
2018-09-15T15:46:47.641Z,0.50
2018-09-15T15:49:16.129Z,0.60
2018-09-15T15:51:44.830Z,0.50
2018-09-15T15:54:13.345Z,0.60
2018-09-15T15:56:41.777Z,0.30
2018-09-15T15:59:10.275Z,0.53
2018-09-15T16:01:38.889Z,0.30
2018-09-15T16:04:07.321Z,0.45
2018-09-15T16:06:35.806Z,0.40
2018-09-15T16:09:04.961Z,0.47
2018-09-15T16:11:33.413Z,0.42
2018-09-15T16:14:02.162Z,0.57
2018-09-15T16:16:30.709Z,0.30
2018-09-15T16:18:59.136Z,0.50
2018-09-15T16:21:27.593Z,0.53
2018-09-15T16:24:02.941Z,0.55
2018-09-15T16:26:31.698Z,0.50
2018-09-15T16:29:00.302Z,0.33
2018-09-15T16:31:29.848Z,0.27
2018-09-15T16:33:58.514Z,0.60
2018-09-15T16:36:27.138Z,0.53
2018-09-15T16:38:55.658Z,0.50
2018-09-15T16:41:24.137Z,0.40
2018-09-15T16:43:53.190Z,0.70
2018-09-15T16:46:22.051Z,0.50
2018-09-15T16:48:51.090Z,0.43
2018-09-15T16:51:19.543Z,0.50
2018-09-15T16:53:48.009Z,0.30
2018-09-15T16:56:16.461Z,0.50
2018-09-15T16:58:44.881Z,0.60
2018-09-15T17:01:13.721Z,0.70
2018-09-15T17:03:42.201Z,0.50
2018-09-15T17:06:10.669Z,0.50
2018-09-15T17:08:39.217Z,0.40
2018-09-15T17:11:09.470Z,0.40
2018-09-15T17:13:38.382Z,0.60
2018-09-15T17:16:06.905Z,0.40
2018-09-15T17:18:35.580Z,0.57
2018-09-15T17:21:04.218Z,0.40
2018-09-15T17:23:32.702Z,0.60
2018-09-15T17:26:01.633Z,0.40
2018-09-15T17:28:30.085Z,0.40
2018-09-15T17:30:58.966Z,0.70
2018-09-15T17:33:28.122Z,0.50
2018-09-15T17:35:56.922Z,0.57
2018-09-15T17:38:26.009Z,0.87
2018-09-15T17:40:54.671Z,0.40
2018-09-15T17:43:23.116Z,0.60
2018-09-15T17:45:51.902Z,0.30
2018-09-15T17:48:20.803Z,0.40
2018-09-15T17:50:49.585Z,0.50
2018-09-15T17:53:18.137Z,0.50
2018-09-15T17:55:46.734Z,0.40
2018-09-15T17:58:15.173Z,0.30
2018-09-15T18:00:43.626Z,0.50
2018-09-15T18:03:12.732Z,0.60
2018-09-15T18:05:41.158Z,0.60
2018-09-15T18:08:09.604Z,0.30
2018-09-15T18:10:38.427Z,0.53
2018-09-15T18:13:06.962Z,0.60
2018-09-15T18:15:35.402Z,0.90
2018-09-15T18:18:04.557Z,0.57
2018-09-15T18:20:33.017Z,0.50
2018-09-15T18:23:01.459Z,0.40
2018-09-15T18:25:30.050Z,0.60
2018-09-15T18:27:58.543Z,0.60
2018-09-15T18:30:27.955Z,0.60
2018-09-15T18:32:56.769Z,0.57
2018-09-15T18:35:25.197Z,0.60
2018-09-15T18:37:53.658Z,0.60
2018-09-15T18:40:22.475Z,0.70
2018-09-15T18:42:50.956Z,0.50
2018-09-15T18:45:19.406Z,0.40
2018-09-15T18:47:48.375Z,0.60
2018-09-15T18:50:16.798Z,0.57
2018-09-15T18:52:45.244Z,0.47
2018-09-15T18:55:14.029Z,0.70
2018-09-15T18:57:42.449Z,0.40
2018-09-15T19:00:10.909Z,0.80
2018-09-15T19:02:39.549Z,0.50
2018-09-15T19:05:08.010Z,0.60
2018-09-15T19:07:36.460Z,0.60
2018-09-15T19:10:05.113Z,0.50
2018-09-15T19:12:33.649Z,0.53
2018-09-15T19:15:02.081Z,0.50
2018-09-15T19:17:30.717Z,0.60
2018-09-15T19:19:59.163Z,0.50
2018-09-15T19:22:27.586Z,0.73
2018-09-15T19:24:56.421Z,0.40
2018-09-15T19:27:24.866Z,0.40
2018-09-15T19:29:53.301Z,0.60
2018-09-15T19:32:21.938Z,0.53
2018-09-15T19:34:50.495Z,0.70
2018-09-15T19:37:18.933Z,0.60
2018-09-15T19:39:47.579Z,0.50
2018-09-15T19:42:16.210Z,0.63
2018-09-15T19:44:44.741Z,0.50
2018-09-15T19:47:13.296Z,0.70
2018-09-15T19:49:41.758Z,0.50
2018-09-15T19:52:10.384Z,0.50
2018-09-15T19:54:38.941Z,0.57
2018-09-15T19:57:07.408Z,1.27
2018-09-15T19:59:35.852Z,0.60
2018-09-15T20:02:05.153Z,0.60
2018-09-15T20:04:33.921Z,0.40
2018-09-15T20:07:02.339Z,0.53
2018-09-15T20:09:31.005Z,0.50
2018-09-15T20:11:59.953Z,0.53
2018-09-15T20:14:29.210Z,0.40
2018-09-15T20:16:56.641Z,0.60
2018-09-15T20:19:23.945Z,0.60
2018-09-15T20:21:51.217Z,1.00
2018-09-15T20:24:19.789Z,0.60
2018-09-15T20:26:48.218Z,0.50
2018-09-15T20:29:16.665Z,0.60
2018-09-15T20:31:45.381Z,0.43
2018-09-15T20:34:13.813Z,0.60
2018-09-15T20:36:42.593Z,0.87
2018-09-15T20:39:12.521Z,0.63
2018-09-15T20:41:41.289Z,0.67
2018-09-15T20:44:09.950Z,0.60
2018-09-15T20:46:38.525Z,0.40
2018-09-15T20:49:07.137Z,0.63
2018-09-15T20:51:35.829Z,0.40
2018-09-15T20:54:04.401Z,0.57
2018-09-15T20:56:32.913Z,0.57
2018-09-15T20:59:01.345Z,0.50
2018-09-15T21:01:30.566Z,0.30
2018-09-15T21:03:59.522Z,0.50
2018-09-15T21:06:28.201Z,0.50
2018-09-15T21:08:56.756Z,0.40
2018-09-15T21:11:25.191Z,0.50
2018-09-15T21:13:53.650Z,0.50
2018-09-15T21:16:22.341Z,0.50
2018-09-15T21:18:50.773Z,0.47
2018-09-15T21:21:19.229Z,0.57
2018-09-15T21:23:48.065Z,0.40
2018-09-15T21:26:16.493Z,0.30
2018-09-15T21:28:44.921Z,0.60
2018-09-15T21:31:13.621Z,0.40
2018-09-15T21:33:42.079Z,0.60
2018-09-15T21:36:10.529Z,0.40
2018-09-15T21:38:39.705Z,0.60
2018-09-15T21:41:08.145Z,0.60
2018-09-15T21:43:36.658Z,0.60
2018-09-15T21:46:05.536Z,0.30
2018-09-15T21:48:33.962Z,0.57
2018-09-15T21:51:02.517Z,0.57
2018-09-15T21:53:31.177Z,0.50
2018-09-15T21:55:59.668Z,0.50
2018-09-15T21:58:28.105Z,0.50
2018-09-15T22:01:02.621Z,0.50
2018-09-15T22:03:31.221Z,0.37
2018-09-15T22:06:00.149Z,0.53
2018-09-15T22:08:29.064Z,0.50
2018-09-15T22:10:57.546Z,0.70
2018-09-15T22:13:25.981Z,0.50
2018-09-15T22:15:54.791Z,0.60
2018-09-15T22:18:23.213Z,0.50
2018-09-15T22:20:51.672Z,0.50
2018-09-15T22:23:20.812Z,0.60
2018-09-15T22:25:49.305Z,0.53
2018-09-15T22:28:17.746Z,0.50
2018-09-15T22:30:46.558Z,0.47
2018-09-15T22:33:15.006Z,0.50
2018-09-15T22:35:43.624Z,0.40
2018-09-15T22:38:12.409Z,0.43
2018-09-15T22:40:41.002Z,0.60
2018-09-15T22:43:09.428Z,0.40
2018-09-15T22:45:38.497Z,0.33
2018-09-15T22:48:07.298Z,0.50
2018-09-15T22:50:35.776Z,0.30
2018-09-15T22:53:05.285Z,0.70
2018-09-15T22:55:33.765Z,0.50
2018-09-15T22:58:02.217Z,0.40
2018-09-15T23:00:32.016Z,0.50
2018-09-15T23:03:01.433Z,0.50
2018-09-15T23:05:30.113Z,0.40
2018-09-15T23:07:59.840Z,0.43
2018-09-15T23:10:28.685Z,0.47
2018-09-15T23:12:58.665Z,0.40
2018-09-15T23:15:27.702Z,0.70
2018-09-15T23:17:56.310Z,0.40
2018-09-15T23:20:25.126Z,0.50
2018-09-15T23:22:54.797Z,0.60
2018-09-15T23:25:23.225Z,0.50
2018-09-15T23:27:51.936Z,0.50
2018-09-15T23:30:20.634Z,0.60
2018-09-15T23:32:49.049Z,0.50
2018-09-15T23:35:17.489Z,0.50
2018-09-15T23:37:46.280Z,0.47
2018-09-15T23:40:14.721Z,0.50
2018-09-15T23:42:43.513Z,0.40
2018-09-15T23:45:12.454Z,0.63
2018-09-15T23:47:40.890Z,0.50
2018-09-15T23:50:09.952Z,0.60
2018-09-15T23:52:39.017Z,0.50
2018-09-15T23:55:07.663Z,0.50
2018-09-15T23:57:36.089Z,0.50
